Strona główna
METAR-TAF:

METAR-TAF

Lotnisko :

Port lotniczy Londyn-City

Londyn, Anglia

Szerokość geograficzna: 51-30N, Długość geograficzna: 000-03E, wysokość: 5 m

Aktualna obserwacja pogody

Raport powstał 21 minut temu, godzina 07:50 UTC
Wiatr 9 kt od zachodnio-południowy zachód
Temperatura 21°C
Wilgotność 73%
Ciśnienie 1022 hPa
Widzialność 10 km lub więcej
Przerywane chmury na wysokości 1800 ft

METAR: EGLC 220750Z AUTO 25009KT 9999 BKN018 21/16 Q1022

czas: 09:11 (08:11 UTC)

Prognoza

Raport powstał 3 godziny i 20 minut temu, godzina 04:51 UTC
Prognoza ważna od 22 godzina 06 UTC do 22 godzina 15 UTC
Wiatr 8 kt od południowy zachód
Widzialność 10 km lub więcej
Mało chmury na wysokości 1500 ft
Przerywane chmury na wysokości 3500 ft

TAF: EGLC 220451Z 2206/2215 23008KT 9999 FEW015 BKN035

Obserwacja i prognoza pogody dla ponad 4000 lotnisk (raport METAR i TAF).

Dostępne stacje oznaczono żółtymi i czerwonymi punktami na mapie.

Najedź kursorem aby zobaczyć nazwę stacji.

Kliknij aby zobaczyć obserwacje i prognozy pogody.

Aby zmienić mapę: kliknij na zielony przycisk z czarnym krzyżykiem, aby powiększyć; na zielony przycisk z myślnikiem, aby pomniejszyć; na zielone strzałki, aby przejść do map sąsiednich.


METAR-TAF: